createdAt,value
2017-03-31T00:00:17.432Z,0
2017-03-31T00:01:17.514Z,0
2017-03-31T00:02:17.528Z,0
2017-03-31T00:03:17.535Z,0
2017-03-31T00:04:17.580Z,0
2017-03-31T00:05:17.618Z,0
2017-03-31T00:06:17.679Z,0
2017-03-31T00:07:17.702Z,0
2017-03-31T00:08:17.719Z,0
2017-03-31T00:09:17.763Z,0
2017-03-31T00:10:17.780Z,0
2017-03-31T00:11:17.823Z,0
2017-03-31T00:12:17.849Z,0
2017-03-31T00:13:17.879Z,0
2017-03-31T00:14:17.902Z,0
2017-03-31T00:15:17.947Z,0
2017-03-31T00:16:17.952Z,0
2017-03-31T00:17:17.975Z,0
2017-03-31T00:18:18.064Z,0
2017-03-31T00:19:18.071Z,0
2017-03-31T00:20:18.087Z,0
2017-03-31T00:21:18.114Z,0
2017-03-31T00:22:18.208Z,0
2017-03-31T00:23:18.215Z,0
2017-03-31T00:24:18.210Z,0
2017-03-31T00:25:18.249Z,0
2017-03-31T00:26:18.299Z,0
2017-03-31T00:27:18.333Z,0
2017-03-31T00:28:18.343Z,0
2017-03-31T00:29:18.361Z,0
2017-03-31T00:30:18.446Z,0
2017-03-31T00:31:18.448Z,0
2017-03-31T00:32:18.472Z,0
2017-03-31T00:33:18.517Z,0
2017-03-31T00:34:18.549Z,0
2017-03-31T00:35:18.581Z,0
2017-03-31T00:36:18.596Z,0
2017-03-31T00:37:18.648Z,0
2017-03-31T00:38:18.682Z,0
2017-03-31T00:39:18.704Z,0
2017-03-31T00:40:18.755Z,0
2017-03-31T00:41:18.756Z,0
2017-03-31T00:42:18.803Z,0
2017-03-31T00:43:18.836Z,0
2017-03-31T00:44:18.869Z,0
2017-03-31T00:45:18.902Z,0
2017-03-31T00:46:18.924Z,0
2017-03-31T00:47:18.960Z,0
2017-03-31T00:48:18.997Z,0
2017-03-31T00:49:19.004Z,0
2017-03-31T00:50:19.051Z,0
2017-03-31T00:51:19.051Z,0
2017-03-31T00:52:19.076Z,0
2017-03-31T00:53:19.138Z,0
2017-03-31T00:54:19.182Z,0
2017-03-31T00:55:19.187Z,0
2017-03-31T00:56:19.220Z,0
2017-03-31T00:57:19.271Z,0
2017-03-31T00:58:19.278Z,0
2017-03-31T00:59:19.325Z,0
2017-03-31T01:00:19.381Z,0
2017-03-31T01:01:19.401Z,0
2017-03-31T01:02:19.432Z,0
2017-03-31T01:03:19.476Z,0
2017-03-31T01:04:19.473Z,0
2017-03-31T01:05:19.519Z,0
2017-03-31T01:06:19.545Z,0
2017-03-31T01:07:19.584Z,0
2017-03-31T01:08:19.616Z,0
2017-03-31T01:09:19.658Z,0
2017-03-31T01:10:19.678Z,0
2017-03-31T01:11:19.699Z,0
2017-03-31T01:12:19.724Z,0
2017-03-31T01:13:19.782Z,0
2017-03-31T01:14:19.804Z,0
2017-03-31T01:15:19.831Z,0
2017-03-31T01:16:19.850Z,0
2017-03-31T01:17:19.895Z,0
2017-03-31T01:18:19.926Z,0
2017-03-31T01:19:19.972Z,0
2017-03-31T01:20:19.991Z,0
2017-03-31T01:21:20.037Z,0
2017-03-31T01:22:20.018Z,0
2017-03-31T01:23:20.067Z,0
2017-03-31T01:24:20.102Z,0
2017-03-31T01:25:20.154Z,0
2017-03-31T01:26:20.163Z,0
2017-03-31T01:27:20.196Z,0
2017-03-31T01:28:20.216Z,0
2017-03-31T01:29:20.266Z,0
2017-03-31T01:30:20.295Z,0
2017-03-31T01:31:20.316Z,0
2017-03-31T01:32:20.361Z,0
2017-03-31T01:33:20.401Z,0
2017-03-31T01:34:20.414Z,0
2017-03-31T01:35:20.406Z,0
2017-03-31T01:36:20.496Z,0
2017-03-31T01:37:20.527Z,0
2017-03-31T01:38:20.563Z,0
2017-03-31T01:39:20.572Z,0
2017-03-31T01:40:20.619Z,0
2017-03-31T01:41:20.629Z,0
2017-03-31T01:42:20.672Z,0
2017-03-31T01:43:20.698Z,0
2017-03-31T01:44:20.735Z,0
2017-03-31T01:45:20.738Z,0
2017-03-31T01:46:20.820Z,0
2017-03-31T01:47:20.789Z,0
2017-03-31T01:48:20.846Z,0
2017-03-31T01:49:20.866Z,0
2017-03-31T01:50:20.929Z,0
2017-03-31T01:51:20.916Z,0
2017-03-31T01:52:20.983Z,0
2017-03-31T01:53:20.976Z,0
2017-03-31T01:54:21.047Z,0
2017-03-31T01:55:21.050Z,0
2017-03-31T01:56:21.087Z,0
2017-03-31T01:57:21.159Z,0
2017-03-31T01:58:21.126Z,0
2017-03-31T01:59:21.185Z,0
2017-03-31T02:00:21.241Z,0
2017-03-31T02:01:21.307Z,0
2017-03-31T02:02:21.279Z,0
2017-03-31T02:03:21.360Z,0
2017-03-31T02:04:21.294Z,0
2017-03-31T02:05:21.593Z,0
2017-03-31T02:06:21.612Z,0
2017-03-31T02:07:22.684Z,0
2017-03-31T02:08:21.426Z,0
2017-03-31T02:09:21.506Z,0
2017-03-31T02:10:21.526Z,0
2017-03-31T02:11:21.562Z,0
2017-03-31T02:12:21.602Z,0
2017-03-31T02:13:21.615Z,0
2017-03-31T02:14:21.629Z,0
2017-03-31T02:15:21.671Z,0
2017-03-31T02:16:21.719Z,0
2017-03-31T02:17:21.755Z,0
2017-03-31T02:18:21.782Z,0
2017-03-31T02:19:21.807Z,0
2017-03-31T02:20:21.855Z,0
2017-03-31T02:21:21.833Z,0
2017-03-31T02:22:21.908Z,0
2017-03-31T02:23:21.922Z,0
2017-03-31T02:24:21.931Z,0
2017-03-31T02:25:21.998Z,0
2017-03-31T02:26:22.023Z,0
2017-03-31T02:27:22.074Z,0
2017-03-31T02:28:22.068Z,0
2017-03-31T02:29:22.125Z,0
2017-03-31T02:30:22.147Z,0
2017-03-31T02:31:22.182Z,0
2017-03-31T02:32:22.229Z,0
2017-03-31T02:33:22.241Z,0
2017-03-31T02:34:22.276Z,0
2017-03-31T02:35:22.299Z,0
2017-03-31T02:36:22.319Z,0
2017-03-31T02:37:22.349Z,0
2017-03-31T02:38:22.374Z,0
2017-03-31T02:39:22.435Z,0
2017-03-31T02:40:22.449Z,0
2017-03-31T02:41:22.495Z,0
2017-03-31T02:42:22.510Z,0
2017-03-31T02:43:22.554Z,0
2017-03-31T02:44:22.559Z,0
2017-03-31T02:45:22.602Z,0
2017-03-31T02:46:22.643Z,0
2017-03-31T02:47:22.649Z,0
2017-03-31T02:48:22.702Z,0
2017-03-31T02:49:22.725Z,0
2017-03-31T02:50:22.749Z,0
2017-03-31T02:51:22.805Z,0
2017-03-31T02:52:22.832Z,0
2017-03-31T02:53:22.838Z,0
2017-03-31T02:54:22.868Z,0
2017-03-31T02:55:22.895Z,0
2017-03-31T02:56:22.933Z,0
2017-03-31T02:57:22.978Z,0
2017-03-31T02:58:23.004Z,0
2017-03-31T02:59:23.032Z,0
2017-03-31T03:00:23.067Z,0
2017-03-31T03:01:23.099Z,0
2017-03-31T03:02:23.095Z,0
2017-03-31T03:03:23.174Z,0
2017-03-31T03:04:23.178Z,0
2017-03-31T03:05:23.254Z,0
2017-03-31T03:06:23.232Z,0
2017-03-31T03:07:23.578Z,0
2017-03-31T03:08:23.280Z,0
2017-03-31T03:09:23.314Z,0
2017-03-31T03:10:23.370Z,0
2017-03-31T03:11:23.398Z,0
2017-03-31T03:12:23.399Z,0
2017-03-31T03:13:23.461Z,0
2017-03-31T03:14:23.501Z,0
2017-03-31T03:15:23.521Z,0
2017-03-31T03:16:23.554Z,0
2017-03-31T03:17:23.577Z,0
2017-03-31T03:18:23.578Z,0
2017-03-31T03:19:23.624Z,0
2017-03-31T03:20:23.674Z,0
2017-03-31T03:21:23.701Z,0
2017-03-31T03:22:23.729Z,0
2017-03-31T03:23:23.747Z,0
2017-03-31T03:24:23.790Z,0
2017-03-31T03:25:23.830Z,0
2017-03-31T03:26:23.844Z,0
2017-03-31T03:27:23.880Z,0
2017-03-31T03:28:23.944Z,0
2017-03-31T03:29:23.965Z,0
2017-03-31T03:30:23.962Z,0
2017-03-31T03:31:24.007Z,0
2017-03-31T03:32:24.034Z,0
2017-03-31T03:33:24.037Z,0
2017-03-31T03:34:24.094Z,0
2017-03-31T03:35:24.129Z,0
2017-03-31T03:36:24.146Z,0
2017-03-31T03:37:24.188Z,0
2017-03-31T03:38:24.219Z,0
2017-03-31T03:39:24.231Z,0
2017-03-31T03:40:24.273Z,0
2017-03-31T03:41:24.291Z,0
2017-03-31T03:42:24.342Z,0
2017-03-31T03:43:24.363Z,0
2017-03-31T03:44:24.421Z,0
2017-03-31T03:45:24.423Z,0
2017-03-31T03:46:24.443Z,0
2017-03-31T03:47:24.499Z,0
2017-03-31T03:48:24.506Z,0
2017-03-31T03:49:24.493Z,0
2017-03-31T03:50:24.572Z,0
2017-03-31T03:51:24.604Z,0
2017-03-31T03:52:24.618Z,0
2017-03-31T03:53:24.642Z,0
2017-03-31T03:54:24.694Z,0
2017-03-31T03:55:25.075Z,0
2017-03-31T03:56:24.748Z,0
2017-03-31T03:57:24.768Z,0
2017-03-31T03:58:24.805Z,0
2017-03-31T03:59:24.819Z,0
2017-03-31T04:00:25.062Z,0
2017-03-31T04:01:24.989Z,0
2017-03-31T04:02:24.988Z,0
2017-03-31T04:03:24.999Z,0
2017-03-31T04:04:25.075Z,0
2017-03-31T04:05:25.218Z,0
2017-03-31T04:06:25.105Z,0
2017-03-31T04:07:25.121Z,0
2017-03-31T04:08:25.193Z,0
2017-03-31T04:09:25.226Z,0
2017-03-31T04:10:25.234Z,0
2017-03-31T04:11:25.345Z,0
2017-03-31T04:12:25.275Z,0
2017-03-31T04:13:25.318Z,0
2017-03-31T04:14:25.421Z,0
2017-03-31T04:15:25.414Z,0
2017-03-31T04:16:25.402Z,0
2017-03-31T04:17:25.440Z,0
2017-03-31T04:18:25.534Z,0
2017-03-31T04:19:25.521Z,0
2017-03-31T04:20:25.504Z,0
2017-03-31T04:21:25.548Z,0
2017-03-31T04:22:25.585Z,0
2017-03-31T04:23:25.592Z,0
2017-03-31T04:24:25.678Z,0
2017-03-31T04:25:25.685Z,0
2017-03-31T04:26:25.693Z,0
2017-03-31T04:27:25.735Z,0
2017-03-31T04:28:25.734Z,0
2017-03-31T04:29:25.811Z,0
2017-03-31T04:30:25.817Z,0
2017-03-31T04:31:25.895Z,0
2017-03-31T04:32:25.905Z,0
2017-03-31T04:33:25.993Z,5
2017-03-31T04:34:25.947Z,5
2017-03-31T04:35:26.015Z,5
2017-03-31T04:36:25.993Z,5
2017-03-31T04:37:26.080Z,5
2017-03-31T04:38:26.085Z,5
2017-03-31T04:39:26.093Z,5
2017-03-31T04:40:26.104Z,5
2017-03-31T04:41:26.181Z,10
2017-03-31T04:42:26.192Z,10
2017-03-31T04:43:26.199Z,10
2017-03-31T04:44:26.317Z,10
2017-03-31T04:45:26.263Z,10
2017-03-31T04:46:26.359Z,10
2017-03-31T04:47:26.591Z,15
2017-03-31T04:48:26.416Z,15
2017-03-31T04:49:26.387Z,15
2017-03-31T04:50:26.584Z,20
2017-03-31T04:51:26.542Z,20
2017-03-31T04:52:26.495Z,25
2017-03-31T04:53:26.511Z,25
2017-03-31T04:54:26.533Z,30
2017-03-31T04:55:26.695Z,30
2017-03-31T04:56:26.574Z,35
2017-03-31T04:57:26.638Z,35
2017-03-31T04:58:26.663Z,40
2017-03-31T04:59:26.663Z,40
2017-03-31T05:00:34.271Z,45
2017-03-31T05:01:26.741Z,45
2017-03-31T05:02:26.777Z,50
2017-03-31T05:03:26.823Z,50
2017-03-31T05:04:26.930Z,55
2017-03-31T05:05:27.035Z,55
2017-03-31T05:06:27.010Z,55
2017-03-31T05:07:26.913Z,60
2017-03-31T05:08:26.988Z,60
2017-03-31T05:09:27.402Z,60
2017-03-31T05:10:27.057Z,65
2017-03-31T05:11:27.043Z,70
2017-03-31T05:12:27.073Z,70
2017-03-31T05:13:27.262Z,75
2017-03-31T05:14:27.164Z,80
2017-03-31T05:15:27.179Z,85
2017-03-31T05:16:27.211Z,85
2017-03-31T05:17:27.251Z,90
2017-03-31T05:18:27.251Z,90
2017-03-31T05:19:27.337Z,95
2017-03-31T05:20:27.312Z,100
2017-03-31T05:21:27.368Z,100
2017-03-31T05:22:27.408Z,105
2017-03-31T05:23:27.392Z,105
2017-03-31T05:24:27.904Z,110
2017-03-31T05:25:27.472Z,115
2017-03-31T05:26:27.506Z,115
2017-03-31T05:27:27.574Z,120
2017-03-31T05:28:27.622Z,125
2017-03-31T05:29:27.578Z,130
2017-03-31T05:30:27.617Z,130
2017-03-31T05:31:27.965Z,130
2017-03-31T05:32:28.341Z,135
2017-03-31T05:33:27.734Z,140
2017-03-31T05:34:27.841Z,145
2017-03-31T05:35:27.782Z,150
2017-03-31T05:36:27.972Z,155
2017-03-31T05:37:27.860Z,160
2017-03-31T05:38:27.909Z,160
2017-03-31T05:39:27.914Z,165
2017-03-31T05:40:27.935Z,170
2017-03-31T05:41:27.964Z,170
2017-03-31T05:42:28.012Z,175
2017-03-31T05:43:28.064Z,175
2017-03-31T05:44:28.038Z,185
2017-03-31T05:45:28.097Z,195
2017-03-31T05:46:28.174Z,210
2017-03-31T05:47:28.204Z,240
2017-03-31T05:48:28.191Z,260
2017-03-31T05:49:28.418Z,275
2017-03-31T05:50:28.273Z,285
2017-03-31T05:51:28.346Z,280
2017-03-31T05:52:28.311Z,275
2017-03-31T05:53:28.743Z,275
2017-03-31T05:54:28.493Z,300
2017-03-31T05:55:28.403Z,310
2017-03-31T05:56:28.540Z,310
2017-03-31T05:57:28.539Z,330
2017-03-31T05:58:28.504Z,340
2017-03-31T05:59:28.673Z,360
2017-03-31T06:00:37.661Z,365
2017-03-31T06:01:28.709Z,345
2017-03-31T06:02:28.795Z,360
2017-03-31T06:03:28.807Z,395
2017-03-31T06:04:29.219Z,425
2017-03-31T06:05:28.855Z,435
2017-03-31T06:06:28.902Z,410
2017-03-31T06:07:28.914Z,425
2017-03-31T06:08:28.934Z,435
2017-03-31T06:09:29.268Z,425
2017-03-31T06:10:29.030Z,445
2017-03-31T06:11:29.052Z,455
2017-03-31T06:12:29.094Z,460
2017-03-31T06:13:29.099Z,440
2017-03-31T06:14:29.100Z,420
2017-03-31T06:15:29.166Z,350
2017-03-31T06:16:29.195Z,295
2017-03-31T06:17:29.210Z,280
2017-03-31T06:18:29.304Z,320
2017-03-31T06:19:29.314Z,385
2017-03-31T06:20:29.398Z,415
2017-03-31T06:21:29.336Z,365
2017-03-31T06:22:29.402Z,330
2017-03-31T06:23:29.464Z,415
2017-03-31T06:24:29.513Z,595
2017-03-31T06:25:29.521Z,795
2017-03-31T06:26:29.520Z,850
2017-03-31T06:27:29.546Z,845
2017-03-31T06:28:29.603Z,865
2017-03-31T06:29:29.618Z,875
2017-03-31T06:30:30.113Z,935
2017-03-31T06:31:29.865Z,945
2017-03-31T06:32:29.822Z,920
2017-03-31T06:33:29.743Z,925
2017-03-31T06:34:29.815Z,955
2017-03-31T06:35:29.969Z,1000
2017-03-31T06:36:29.872Z,1015
2017-03-31T06:37:29.945Z,1035
2017-03-31T06:38:29.927Z,1055
2017-03-31T06:39:29.980Z,1030
2017-03-31T06:40:30.085Z,1015
2017-03-31T06:41:30.070Z,1020
2017-03-31T06:42:30.144Z,1020
2017-03-31T06:43:30.134Z,1000
2017-03-31T06:44:30.124Z,1030
2017-03-31T06:45:30.558Z,1015
2017-03-31T06:46:30.188Z,985
2017-03-31T06:47:30.304Z,1055
2017-03-31T06:48:30.305Z,1090
2017-03-31T06:49:30.312Z,1060
2017-03-31T06:50:30.635Z,1015
2017-03-31T06:51:30.776Z,1005
2017-03-31T06:52:30.407Z,1050
2017-03-31T06:53:30.454Z,1105
2017-03-31T06:54:30.535Z,1105
2017-03-31T06:55:30.556Z,1120
2017-03-31T06:56:30.582Z,1110
2017-03-31T06:57:30.639Z,1100
2017-03-31T06:58:30.624Z,1100
2017-03-31T06:59:30.671Z,1125
2017-03-31T07:00:30.712Z,1145
2017-03-31T07:01:30.770Z,1185
2017-03-31T07:02:30.823Z,1160
2017-03-31T07:03:30.851Z,1160
2017-03-31T07:04:30.994Z,1150
2017-03-31T07:05:30.873Z,1145
2017-03-31T07:06:30.947Z,1190
2017-03-31T07:07:30.987Z,1260
2017-03-31T07:08:31.077Z,1290
2017-03-31T07:09:31.066Z,1330
2017-03-31T07:10:31.067Z,1355
2017-03-31T07:11:31.139Z,1375
2017-03-31T07:12:31.165Z,1370
2017-03-31T07:13:31.235Z,1365
2017-03-31T07:14:31.245Z,1330
2017-03-31T07:15:31.738Z,1310
2017-03-31T07:16:31.331Z,1365
2017-03-31T07:17:31.340Z,1425
2017-03-31T07:18:31.372Z,1440
2017-03-31T07:19:31.432Z,1430
2017-03-31T07:20:31.460Z,1420
2017-03-31T07:21:31.548Z,1430
2017-03-31T07:22:31.672Z,1460
2017-03-31T07:23:31.560Z,1485
2017-03-31T07:24:31.819Z,1485
2017-03-31T07:25:31.730Z,1490
2017-03-31T07:26:31.676Z,1530
2017-03-31T07:27:31.742Z,1525
2017-03-31T07:28:31.774Z,1535
2017-03-31T07:29:31.844Z,1560
2017-03-31T07:30:31.854Z,1580
2017-03-31T07:31:31.950Z,1595
2017-03-31T07:32:31.950Z,1595
2017-03-31T07:33:31.980Z,1620
2017-03-31T07:34:32.052Z,1590
2017-03-31T07:35:32.012Z,1575
2017-03-31T07:36:32.380Z,1550
2017-03-31T07:37:32.107Z,1525
2017-03-31T07:38:32.173Z,1545
2017-03-31T07:39:32.201Z,1535
2017-03-31T07:40:32.235Z,1560
2017-03-31T07:41:32.431Z,1620
2017-03-31T07:42:32.333Z,1625
2017-03-31T07:43:32.445Z,1605
2017-03-31T07:44:32.385Z,1625
2017-03-31T07:45:32.455Z,1675
2017-03-31T07:46:32.795Z,1675
2017-03-31T07:47:32.570Z,1600
2017-03-31T07:48:32.553Z,1620
2017-03-31T07:49:32.615Z,1595
2017-03-31T07:50:32.665Z,1530
2017-03-31T07:51:32.886Z,1485
2017-03-31T07:52:32.769Z,1300
2017-03-31T07:53:32.788Z,1385
2017-03-31T07:54:32.816Z,1510
2017-03-31T07:55:32.835Z,1475
2017-03-31T07:56:33.178Z,1530
2017-03-31T07:57:32.959Z,1585
2017-03-31T07:58:32.972Z,1625
2017-03-31T07:59:33.066Z,1555
2017-03-31T08:00:33.075Z,1520
2017-03-31T08:01:33.116Z,1490
2017-03-31T08:02:33.150Z,1470
2017-03-31T08:03:33.195Z,1505
2017-03-31T08:04:33.262Z,1575
2017-03-31T08:05:33.307Z,1495
2017-03-31T08:06:33.347Z,1310
2017-03-31T08:07:33.367Z,1395
2017-03-31T08:08:33.419Z,1400
2017-03-31T08:09:33.454Z,1390
2017-03-31T08:10:33.469Z,1285
2017-03-31T08:11:33.559Z,1200
2017-03-31T08:12:33.586Z,1225
2017-03-31T08:13:33.664Z,1465
2017-03-31T08:14:33.678Z,1545
2017-03-31T08:15:33.687Z,1530
2017-03-31T08:16:33.782Z,1530
2017-03-31T08:17:33.995Z,1425
2017-03-31T08:18:33.803Z,1385
2017-03-31T08:19:33.850Z,1455
2017-03-31T08:20:33.985Z,1610
2017-03-31T08:21:33.979Z,1735
2017-03-31T08:22:34.068Z,1695
2017-03-31T08:23:34.060Z,1770
2017-03-31T08:24:34.079Z,1690
2017-03-31T08:25:34.098Z,1625
2017-03-31T08:26:34.146Z,1600
2017-03-31T08:27:34.246Z,1530
2017-03-31T08:28:34.283Z,1715
2017-03-31T08:29:34.301Z,1645
2017-03-31T08:30:34.377Z,1475
2017-03-31T08:31:34.800Z,1630
2017-03-31T08:32:34.485Z,1875
2017-03-31T08:33:34.499Z,1755
2017-03-31T08:34:34.539Z,1610
2017-03-31T08:35:34.595Z,1695
2017-03-31T08:36:34.581Z,1845
2017-03-31T08:37:34.660Z,1860
2017-03-31T08:38:34.685Z,1865
2017-03-31T08:39:34.708Z,1765
2017-03-31T08:40:34.776Z,1475
2017-03-31T08:41:34.871Z,1575
2017-03-31T08:42:34.834Z,1610
2017-03-31T08:43:34.882Z,1865
2017-03-31T08:44:34.936Z,1915
2017-03-31T08:45:34.999Z,1995
2017-03-31T08:46:35.066Z,1980
2017-03-31T08:47:35.098Z,2015
2017-03-31T08:48:35.107Z,2055
2017-03-31T08:49:35.204Z,2110
2017-03-31T08:50:35.288Z,2065
2017-03-31T08:51:35.250Z,2085
2017-03-31T08:52:35.287Z,1935
2017-03-31T08:53:35.348Z,1745
2017-03-31T08:54:35.346Z,1825
2017-03-31T08:55:35.451Z,1930
2017-03-31T08:56:35.443Z,1735
2017-03-31T08:57:35.496Z,1530
2017-03-31T08:58:35.654Z,1665
2017-03-31T08:59:35.644Z,1900
2017-03-31T09:00:35.749Z,1945
2017-03-31T09:01:35.681Z,1915
2017-03-31T09:02:35.821Z,1945
2017-03-31T09:03:35.777Z,1780
2017-03-31T09:04:35.832Z,1900
2017-03-31T09:05:35.982Z,1850
2017-03-31T09:06:35.994Z,1780
2017-03-31T09:07:35.989Z,1680
2017-03-31T09:08:36.019Z,1615
2017-03-31T09:09:36.047Z,1440
2017-03-31T09:10:36.192Z,1445
2017-03-31T09:11:36.144Z,1445
2017-03-31T09:12:36.155Z,1525
2017-03-31T09:13:36.236Z,1530
2017-03-31T09:14:36.269Z,1505
2017-03-31T09:15:36.337Z,1615
2017-03-31T09:16:36.369Z,1495
2017-03-31T09:17:36.419Z,1520
2017-03-31T09:18:36.455Z,1430
2017-03-31T09:19:36.520Z,1420
2017-03-31T09:20:36.567Z,1280
2017-03-31T09:21:36.674Z,1235
2017-03-31T09:22:36.648Z,1250
2017-03-31T09:23:36.678Z,1195
2017-03-31T09:24:36.744Z,1180
2017-03-31T09:25:36.760Z,1120
2017-03-31T09:26:36.834Z,1230
2017-03-31T09:27:36.854Z,1285
2017-03-31T09:28:36.929Z,1340
2017-03-31T09:29:37.018Z,1410
2017-03-31T09:30:37.481Z,1470
2017-03-31T09:31:37.040Z,1465
2017-03-31T09:32:37.113Z,1495
2017-03-31T09:33:37.171Z,1590
2017-03-31T09:34:37.206Z,1610
2017-03-31T09:35:37.276Z,1565
2017-03-31T09:36:37.244Z,1535
2017-03-31T09:37:37.348Z,1575
2017-03-31T09:38:37.365Z,1495
2017-03-31T09:39:37.939Z,1635
2017-03-31T09:40:37.450Z,1735
2017-03-31T09:41:37.545Z,1915
2017-03-31T09:42:37.637Z,1920
2017-03-31T09:43:37.601Z,1840
2017-03-31T09:44:37.678Z,1925
2017-03-31T09:45:37.702Z,1895
2017-03-31T09:46:38.051Z,1980
2017-03-31T09:47:37.767Z,2025
2017-03-31T09:48:38.294Z,1880
2017-03-31T09:49:37.853Z,1910
2017-03-31T09:50:38.065Z,1930
2017-03-31T09:51:38.395Z,1755
2017-03-31T09:52:38.061Z,1595
2017-03-31T09:53:38.486Z,1480
2017-03-31T09:54:38.057Z,1305
2017-03-31T09:55:38.189Z,1145
2017-03-31T09:56:38.195Z,1105
2017-03-31T09:57:38.674Z,1065
2017-03-31T09:58:38.259Z,1035
2017-03-31T09:59:38.559Z,985
2017-03-31T10:00:38.574Z,955
2017-03-31T10:01:38.428Z,955
2017-03-31T10:02:38.688Z,1000
2017-03-31T10:03:38.542Z,980
2017-03-31T10:04:38.655Z,955
2017-03-31T10:05:38.910Z,940
2017-03-31T10:06:38.704Z,950
2017-03-31T10:07:38.779Z,930
2017-03-31T10:08:38.680Z,900
2017-03-31T10:09:38.782Z,880
2017-03-31T10:10:38.769Z,850
2017-03-31T10:11:38.864Z,835
2017-03-31T10:12:38.884Z,825
2017-03-31T10:13:38.951Z,815
2017-03-31T10:14:38.986Z,800
2017-03-31T10:15:39.066Z,815
2017-03-31T10:16:39.186Z,820
2017-03-31T10:17:39.108Z,850
2017-03-31T10:18:39.186Z,880
2017-03-31T10:19:39.287Z,845
2017-03-31T10:20:39.472Z,825
2017-03-31T10:21:39.328Z,825
2017-03-31T10:22:39.592Z,860
2017-03-31T10:23:39.376Z,850
2017-03-31T10:24:39.409Z,835
2017-03-31T10:25:39.498Z,785
2017-03-31T10:26:39.535Z,785
2017-03-31T10:27:39.559Z,815
2017-03-31T10:28:39.975Z,835
2017-03-31T10:29:39.670Z,840
2017-03-31T10:30:39.908Z,840
2017-03-31T10:31:39.734Z,845
2017-03-31T10:32:39.765Z,840
2017-03-31T10:33:39.775Z,835
2017-03-31T10:34:39.865Z,825
2017-03-31T10:35:39.908Z,815
2017-03-31T10:36:39.995Z,790
2017-03-31T10:37:40.319Z,780
2017-03-31T10:38:40.062Z,765
2017-03-31T10:39:40.101Z,770
2017-03-31T10:40:40.210Z,765
2017-03-31T10:41:40.150Z,770
2017-03-31T10:42:40.300Z,765
2017-03-31T10:43:40.370Z,780
2017-03-31T10:44:40.465Z,780
2017-03-31T10:45:40.402Z,760
2017-03-31T10:46:40.422Z,760
2017-03-31T10:47:40.631Z,740
2017-03-31T10:48:40.524Z,740
2017-03-31T10:49:40.707Z,745
2017-03-31T10:50:40.619Z,740
2017-03-31T10:51:40.553Z,725
2017-03-31T10:52:40.597Z,710
2017-03-31T10:53:40.666Z,745
2017-03-31T10:54:40.706Z,750
2017-03-31T10:55:40.730Z,725
2017-03-31T10:56:40.819Z,765
2017-03-31T10:57:40.807Z,770
2017-03-31T10:58:40.864Z,725
2017-03-31T10:59:40.905Z,725
2017-03-31T11:00:40.920Z,720
2017-03-31T11:01:41.006Z,710
2017-03-31T11:02:41.049Z,700
2017-03-31T11:03:41.112Z,680
2017-03-31T11:04:41.106Z,690
2017-03-31T11:05:41.368Z,685
2017-03-31T11:06:41.432Z,660
2017-03-31T11:07:41.213Z,635
2017-03-31T11:08:41.239Z,630
2017-03-31T11:09:41.342Z,625
2017-03-31T11:10:41.395Z,605
2017-03-31T11:11:54.054Z,605
2017-03-31T11:12:41.375Z,610
2017-03-31T11:13:41.491Z,610
2017-03-31T11:14:41.513Z,605
2017-03-31T11:15:41.547Z,585
2017-03-31T11:16:41.512Z,585
2017-03-31T11:17:41.585Z,570
2017-03-31T11:18:41.690Z,565
2017-03-31T11:19:41.695Z,545
2017-03-31T11:20:41.772Z,550
2017-03-31T11:21:41.844Z,540
2017-03-31T11:22:41.799Z,535
2017-03-31T11:23:41.881Z,530
2017-03-31T11:24:41.943Z,515
2017-03-31T11:25:42.167Z,510
2017-03-31T11:26:42.401Z,515
2017-03-31T11:27:42.031Z,505
2017-03-31T11:28:42.080Z,495
2017-03-31T11:29:42.084Z,490
2017-03-31T11:30:42.389Z,490
2017-03-31T11:31:42.115Z,485
2017-03-31T11:32:42.206Z,475
2017-03-31T11:33:42.242Z,470
2017-03-31T11:34:42.269Z,470
2017-03-31T11:35:42.674Z,475
2017-03-31T11:36:42.415Z,475
2017-03-31T11:37:42.388Z,465
2017-03-31T11:38:42.427Z,465
2017-03-31T11:39:42.524Z,465
2017-03-31T11:40:42.523Z,455
2017-03-31T11:41:42.544Z,450
2017-03-31T11:42:42.700Z,435
2017-03-31T11:43:42.676Z,430
2017-03-31T11:44:42.737Z,430
2017-03-31T11:45:42.752Z,430
2017-03-31T11:46:42.750Z,430
2017-03-31T11:47:42.810Z,425
2017-03-31T11:48:42.904Z,420
2017-03-31T11:49:42.861Z,415
2017-03-31T11:50:42.893Z,410
2017-03-31T11:51:43.535Z,410
2017-03-31T11:52:43.085Z,400
2017-03-31T11:53:43.085Z,395
2017-03-31T11:54:43.102Z,400
2017-03-31T11:55:43.149Z,395
2017-03-31T11:56:43.162Z,395
2017-03-31T11:57:43.249Z,400
2017-03-31T11:58:43.271Z,405
2017-03-31T11:59:43.354Z,405
2017-03-31T12:00:43.269Z,405
2017-03-31T12:01:43.428Z,405
2017-03-31T12:02:43.413Z,400
2017-03-31T12:03:43.408Z,400
2017-03-31T12:04:43.493Z,395
2017-03-31T12:05:43.522Z,395
2017-03-31T12:06:43.507Z,400
2017-03-31T12:07:43.642Z,395
2017-03-31T12:08:44.008Z,395
2017-03-31T12:09:43.666Z,395
2017-03-31T12:10:43.708Z,400
2017-03-31T12:11:43.780Z,400
2017-03-31T12:12:43.777Z,405
2017-03-31T12:13:43.807Z,410
2017-03-31T12:14:43.884Z,410
2017-03-31T12:15:43.889Z,410
2017-03-31T12:16:44.161Z,415
2017-03-31T12:17:44.070Z,410
2017-03-31T12:18:44.073Z,410
2017-03-31T12:19:44.073Z,410
2017-03-31T12:20:44.181Z,405
2017-03-31T12:21:44.113Z,405
2017-03-31T12:22:44.189Z,400
2017-03-31T12:23:44.209Z,400
2017-03-31T12:24:44.247Z,400
2017-03-31T12:25:44.329Z,395
2017-03-31T12:26:44.286Z,395
2017-03-31T12:27:44.366Z,390
2017-03-31T12:28:44.387Z,390
2017-03-31T12:29:44.499Z,390
2017-03-31T12:30:44.486Z,395
2017-03-31T12:31:44.566Z,385
2017-03-31T12:32:44.546Z,380
2017-03-31T12:33:44.568Z,385
2017-03-31T12:34:44.923Z,380
2017-03-31T12:35:44.707Z,380
2017-03-31T12:36:44.723Z,380
2017-03-31T12:37:44.768Z,375
2017-03-31T12:38:44.802Z,375
2017-03-31T12:39:44.811Z,375
2017-03-31T12:40:44.874Z,380
2017-03-31T12:41:44.898Z,385
2017-03-31T12:42:44.970Z,380
2017-03-31T12:43:45.008Z,380
2017-03-31T12:44:45.071Z,380
2017-03-31T12:45:45.090Z,380
2017-03-31T12:46:45.132Z,385
2017-03-31T12:47:45.129Z,385
2017-03-31T12:48:45.207Z,385
2017-03-31T12:49:45.262Z,390
2017-03-31T12:50:45.331Z,390
2017-03-31T12:51:45.886Z,390
2017-03-31T12:52:45.306Z,395
2017-03-31T12:53:45.598Z,395
2017-03-31T12:54:45.408Z,395
2017-03-31T12:55:45.470Z,395
2017-03-31T12:56:45.491Z,400
2017-03-31T12:57:45.508Z,395
2017-03-31T12:58:45.642Z,395
2017-03-31T12:59:45.624Z,400
2017-03-31T13:00:46.044Z,400
2017-03-31T13:01:48.701Z,400
2017-03-31T13:02:45.730Z,400
2017-03-31T13:03:45.806Z,395
2017-03-31T13:04:45.804Z,395
2017-03-31T13:05:45.856Z,390
2017-03-31T13:06:45.864Z,395
2017-03-31T13:07:45.905Z,390
2017-03-31T13:08:45.967Z,385
2017-03-31T13:09:45.988Z,385
2017-03-31T13:10:46.040Z,380
2017-03-31T13:11:46.060Z,375
2017-03-31T13:12:46.109Z,375
2017-03-31T13:13:46.135Z,370
2017-03-31T13:14:46.192Z,370
2017-03-31T13:15:46.235Z,370
2017-03-31T13:16:46.326Z,370
2017-03-31T13:17:46.364Z,370
2017-03-31T13:18:46.363Z,370
2017-03-31T13:19:46.438Z,365
2017-03-31T13:20:46.466Z,365
2017-03-31T13:21:46.479Z,370
2017-03-31T13:22:46.504Z,365
2017-03-31T13:23:46.573Z,365
2017-03-31T13:24:46.610Z,360
2017-03-31T13:25:46.682Z,355
2017-03-31T13:26:47.020Z,355
2017-03-31T13:27:46.715Z,355
2017-03-31T13:28:46.753Z,360
2017-03-31T13:29:46.828Z,355
2017-03-31T13:30:46.830Z,350
2017-03-31T13:31:46.883Z,350
2017-03-31T13:32:46.874Z,350
2017-03-31T13:33:46.962Z,350
2017-03-31T13:34:47.261Z,340
2017-03-31T13:35:47.086Z,335
2017-03-31T13:36:47.075Z,330
2017-03-31T13:37:47.151Z,330
2017-03-31T13:38:47.540Z,325
2017-03-31T13:39:47.178Z,320
2017-03-31T13:40:47.253Z,315
2017-03-31T13:41:47.626Z,310
2017-03-31T13:42:47.314Z,305
2017-03-31T13:43:47.345Z,300
2017-03-31T13:44:47.386Z,295
2017-03-31T13:45:47.382Z,290
2017-03-31T13:46:47.518Z,290
2017-03-31T13:47:47.681Z,285
2017-03-31T13:48:47.492Z,285
2017-03-31T13:49:47.597Z,285
2017-03-31T13:50:47.679Z,280
2017-03-31T13:51:47.846Z,280
2017-03-31T13:52:47.717Z,280
2017-03-31T13:53:47.718Z,275
2017-03-31T13:54:47.733Z,275
2017-03-31T13:55:47.826Z,275
2017-03-31T13:56:47.846Z,275
2017-03-31T13:57:47.877Z,270
2017-03-31T13:58:47.934Z,270
2017-03-31T13:59:47.958Z,275